createdAt,value
2022-08-16T00:01:56.867Z,2.10
2022-08-16T00:04:28.609Z,2.00
2022-08-16T00:06:57.901Z,1.70
2022-08-16T00:09:25.873Z,1.60
2022-08-16T00:11:55.559Z,2.07
2022-08-16T00:14:30.500Z,1.97
2022-08-16T00:17:15.656Z,1.97
2022-08-16T00:19:49.028Z,1.90
2022-08-16T00:22:24.823Z,1.80
2022-08-16T00:24:54.728Z,2.03
2022-08-16T00:27:23.095Z,1.87
2022-08-16T00:30:00.504Z,1.80
2022-08-16T00:32:32.924Z,1.90
2022-08-16T00:35:01.840Z,2.13
2022-08-16T00:37:58.173Z,1.90
2022-08-16T00:40:34.486Z,2.07
2022-08-16T00:43:05.305Z,2.37
2022-08-16T00:45:57.950Z,1.90
2022-08-16T00:48:28.695Z,1.83
2022-08-16T00:50:59.765Z,1.90
2022-08-16T00:53:30.669Z,2.10
2022-08-16T00:56:05.248Z,2.07
2022-08-16T00:58:36.083Z,2.07
2022-08-16T01:01:08.582Z,1.80
2022-08-16T01:03:41.348Z,1.97
2022-08-16T01:06:39.963Z,2.03
2022-08-16T01:09:04.763Z,2.00
2022-08-16T01:11:33.988Z,1.90
2022-08-16T01:14:06.900Z,2.10
2022-08-16T01:16:36.065Z,2.00
2022-08-16T01:19:11.345Z,2.10
2022-08-16T01:21:45.091Z,2.10
2022-08-16T01:24:51.753Z,1.90
2022-08-16T01:27:22.701Z,1.80
2022-08-16T01:29:58.006Z,1.80
2022-08-16T01:32:33.797Z,1.80
2022-08-16T01:35:07.315Z,1.93
2022-08-16T01:37:43.432Z,1.70
2022-08-16T01:40:16.179Z,1.97
2022-08-16T01:42:48.137Z,1.83
2022-08-16T01:45:19.640Z,1.80
2022-08-16T01:47:52.034Z,1.67
2022-08-16T01:51:05.105Z,1.70
2022-08-16T01:53:11.945Z,1.80
2022-08-16T01:56:01.480Z,1.53
2022-08-16T01:58:33.209Z,1.50
2022-08-16T02:01:01.378Z,1.77
2022-08-16T02:03:30.588Z,1.60
2022-08-16T02:05:58.404Z,1.63
2022-08-16T02:08:33.719Z,1.93
2022-08-16T02:11:07.958Z,1.67
2022-08-16T02:13:36.075Z,1.60
2022-08-16T02:16:18.580Z,1.53
2022-08-16T02:18:47.806Z,1.80
2022-08-16T02:21:17.048Z,2.00
2022-08-16T02:23:59.942Z,1.50
2022-08-16T02:26:29.591Z,2.00
2022-08-16T02:29:02.698Z,1.90
2022-08-16T02:32:03.616Z,1.97
2022-08-16T02:34:20.232Z,1.90
2022-08-16T02:37:00.970Z,1.63
2022-08-16T02:39:30.273Z,2.00
2022-08-16T02:42:00.333Z,1.90
2022-08-16T02:44:28.593Z,1.70
2022-08-16T02:46:57.752Z,1.80
2022-08-16T02:49:32.209Z,1.80
2022-08-16T02:52:24.891Z,1.50
2022-08-16T02:55:02.545Z,1.90
2022-08-16T02:57:33.578Z,1.63
2022-08-16T03:00:34.114Z,1.80
2022-08-16T03:02:56.419Z,1.60
2022-08-16T03:05:25.741Z,2.00
2022-08-16T03:07:59.334Z,1.63
2022-08-16T03:10:33.240Z,1.80
2022-08-16T03:13:04.112Z,1.43
2022-08-16T03:15:41.026Z,1.60
2022-08-16T03:18:12.419Z,1.63
2022-08-16T03:20:46.966Z,1.77
2022-08-16T03:23:23.860Z,1.63
2022-08-16T03:25:51.703Z,1.70
2022-08-16T03:28:22.120Z,1.73
2022-08-16T03:30:52.546Z,1.60
2022-08-16T03:33:23.866Z,1.60
2022-08-16T03:35:59.231Z,1.60
2022-08-16T03:38:47.621Z,1.80
2022-08-16T03:41:25.220Z,1.70
2022-08-16T03:44:00.548Z,1.80
2022-08-16T03:46:47.185Z,1.70
2022-08-16T03:49:23.563Z,1.70
2022-08-16T03:52:07.539Z,1.90
2022-08-16T03:54:37.620Z,1.97
2022-08-16T03:57:06.612Z,1.47
2022-08-16T03:59:43.499Z,1.77
2022-08-16T04:02:22.415Z,2.00
2022-08-16T04:05:00.024Z,2.03
2022-08-16T04:07:33.503Z,1.70
2022-08-16T04:10:35.926Z,1.80
2022-08-16T04:12:53.705Z,1.83
2022-08-16T04:15:35.168Z,1.80
2022-08-16T04:18:14.479Z,1.87
2022-08-16T04:20:43.049Z,1.60
2022-08-16T04:23:11.180Z,2.20
2022-08-16T04:25:41.722Z,1.80
2022-08-16T04:28:29.218Z,1.97
2022-08-16T04:31:07.412Z,1.90
2022-08-16T04:33:51.074Z,2.10
2022-08-16T04:36:21.671Z,2.20
2022-08-16T04:38:50.152Z,2.00
2022-08-16T04:41:20.413Z,2.30
2022-08-16T04:44:01.720Z,2.30
2022-08-16T04:47:02.735Z,2.10
2022-08-16T04:49:19.000Z,2.43
2022-08-16T04:51:53.894Z,2.40
2022-08-16T04:54:23.519Z,2.10
2022-08-16T04:56:51.453Z,2.30
2022-08-16T04:59:22.133Z,2.53
2022-08-16T05:01:59.168Z,2.17
2022-08-16T05:04:30.032Z,2.20
2022-08-16T05:06:58.703Z,2.10
2022-08-16T05:09:58.357Z,2.40
2022-08-16T05:12:30.487Z,2.23
2022-08-16T05:15:01.947Z,2.23
2022-08-16T05:17:32.782Z,2.40
2022-08-16T05:20:35.138Z,2.40
2022-08-16T05:22:53.678Z,2.20
2022-08-16T05:25:24.177Z,2.27
2022-08-16T05:28:10.754Z,2.20
2022-08-16T05:30:43.993Z,2.20
2022-08-16T05:33:22.934Z,2.30
2022-08-16T05:35:55.513Z,2.27
2022-08-16T05:38:40.082Z,2.20
2022-08-16T05:41:13.793Z,2.50
2022-08-16T05:43:46.839Z,2.40
2022-08-16T05:46:29.442Z,2.40
2022-08-16T05:49:08.871Z,2.10
2022-08-16T05:51:41.498Z,2.07
2022-08-16T05:54:11.310Z,2.23
2022-08-16T05:56:39.718Z,2.10
2022-08-16T05:59:08.544Z,1.83
2022-08-16T06:01:38.271Z,2.27
2022-08-16T06:04:13.341Z,2.03
2022-08-16T06:06:57.641Z,1.90
2022-08-16T06:09:42.581Z,2.00
2022-08-16T06:12:11.597Z,1.90
2022-08-16T06:14:40.089Z,2.37
2022-08-16T06:17:08.663Z,1.90
2022-08-16T06:19:45.350Z,2.00
2022-08-16T06:22:37.173Z,2.43
2022-08-16T06:25:04.509Z,2.00
2022-08-16T06:27:39.476Z,2.30
2022-08-16T06:30:10.653Z,2.00
2022-08-16T06:32:42.920Z,2.13
2022-08-16T06:35:13.579Z,2.00
2022-08-16T06:37:42.978Z,1.90
2022-08-16T06:40:15.913Z,2.37
2022-08-16T06:42:54.012Z,2.07
2022-08-16T06:45:51.307Z,1.90
2022-08-16T06:48:32.269Z,1.97
2022-08-16T06:51:03.866Z,2.07
2022-08-16T06:53:35.461Z,1.70
2022-08-16T06:56:14.919Z,1.90
2022-08-16T06:59:04.297Z,2.10
2022-08-16T07:01:43.446Z,1.90
2022-08-16T07:04:31.824Z,2.13
2022-08-16T07:07:05.570Z,2.00
2022-08-16T07:09:33.956Z,2.00
2022-08-16T07:12:03.535Z,2.10
2022-08-16T07:14:35.385Z,2.13
2022-08-16T07:17:07.903Z,1.90
2022-08-16T07:20:02.962Z,2.00
2022-08-16T07:22:37.834Z,2.20
2022-08-16T07:25:16.674Z,2.27
2022-08-16T07:27:45.064Z,2.07
2022-08-16T07:30:39.126Z,2.40
2022-08-16T07:33:09.364Z,2.00
2022-08-16T07:35:44.555Z,2.13
2022-08-16T07:38:20.285Z,2.13
2022-08-16T07:41:10.309Z,2.20
2022-08-16T07:43:43.506Z,2.23
2022-08-16T07:46:39.437Z,2.37
2022-08-16T07:49:11.180Z,2.20
2022-08-16T07:51:40.368Z,2.30
2022-08-16T07:54:20.858Z,2.23
2022-08-16T07:56:51.517Z,2.47
2022-08-16T07:59:21.211Z,2.40
2022-08-16T08:01:53.085Z,2.20
2022-08-16T08:04:22.066Z,2.10
2022-08-16T08:06:52.090Z,2.43
2022-08-16T08:09:21.787Z,2.30
2022-08-16T08:12:00.941Z,2.43
2022-08-16T08:14:34.394Z,2.30
2022-08-16T08:17:02.957Z,2.40
2022-08-16T08:19:33.535Z,2.40
2022-08-16T08:22:05.924Z,2.20
2022-08-16T08:25:05.799Z,2.30
2022-08-16T08:27:35.268Z,2.40
2022-08-16T08:30:49.205Z,2.40
2022-08-16T08:33:00.345Z,2.30
2022-08-16T08:35:37.395Z,2.20
2022-08-16T08:38:08.331Z,2.40
2022-08-16T08:40:40.533Z,2.30
2022-08-16T08:43:18.254Z,2.20
2022-08-16T08:45:59.938Z,2.73
2022-08-16T08:48:34.000Z,2.70
2022-08-16T08:51:08.685Z,2.33
2022-08-16T08:53:43.864Z,2.60
2022-08-16T08:56:15.652Z,2.23
2022-08-16T08:58:54.304Z,2.33
2022-08-16T09:01:36.990Z,2.67
2022-08-16T09:04:24.137Z,3.10
2022-08-16T09:06:53.516Z,3.70
2022-08-16T09:09:22.484Z,3.40
2022-08-16T09:12:05.987Z,3.20
2022-08-16T09:14:49.331Z,2.53
2022-08-16T09:17:45.351Z,2.60
2022-08-16T09:20:09.378Z,2.70
2022-08-16T09:22:42.234Z,2.37
2022-08-16T09:25:13.077Z,2.70
2022-08-16T09:27:56.450Z,2.72
2022-08-16T09:30:34.342Z,2.97
2022-08-16T09:33:11.316Z,2.50
2022-08-16T09:35:39.495Z,2.40
2022-08-16T09:38:12.179Z,3.00
2022-08-16T09:40:42.581Z,2.50
2022-08-16T09:43:37.758Z,2.60
2022-08-16T09:46:02.767Z,2.80
2022-08-16T09:48:44.215Z,2.40
2022-08-16T09:51:14.111Z,2.50
2022-08-16T09:53:43.193Z,2.40
2022-08-16T09:56:21.880Z,2.57
2022-08-16T09:59:05.509Z,2.20
2022-08-16T10:01:36.629Z,2.30
2022-08-16T10:04:08.257Z,2.33
2022-08-16T10:06:53.867Z,2.37
2022-08-16T10:09:21.763Z,2.40
2022-08-16T10:12:11.652Z,2.30
2022-08-16T10:14:48.719Z,2.30
2022-08-16T10:17:17.155Z,2.60
2022-08-16T10:19:47.049Z,2.60
2022-08-16T10:22:18.352Z,2.23
2022-08-16T10:24:55.959Z,2.70
2022-08-16T10:27:45.824Z,2.80
2022-08-16T10:30:26.069Z,2.40
2022-08-16T10:32:56.934Z,2.50
2022-08-16T10:35:33.011Z,2.90
2022-08-16T10:38:01.510Z,2.50
2022-08-16T10:40:30.606Z,2.40
2022-08-16T10:43:00.358Z,2.40
2022-08-16T10:45:37.052Z,2.63
2022-08-16T10:48:27.438Z,2.37
2022-08-16T10:50:58.120Z,2.43
2022-08-16T10:53:27.227Z,2.40
2022-08-16T10:56:02.728Z,2.40
2022-08-16T10:58:34.122Z,2.43
2022-08-16T11:03:57.235Z,2.47
2022-08-16T11:06:26.821Z,2.20
2022-08-16T11:14:34.822Z,2.80
2022-08-16T11:17:10.572Z,2.67
2022-08-16T11:22:46.852Z,2.20
2022-08-16T11:28:08.225Z,2.63
2022-08-16T11:30:38.633Z,2.20
2022-08-16T11:33:10.740Z,2.33
2022-08-16T11:36:22.151Z,2.20
2022-08-16T11:38:51.846Z,2.20
2022-08-16T11:41:15.151Z,2.30
2022-08-16T11:43:43.126Z,2.10
2022-08-16T11:46:45.299Z,2.30
2022-08-16T11:49:03.569Z,2.10
2022-08-16T11:51:31.496Z,2.07
2022-08-16T11:53:59.467Z,2.13
2022-08-16T11:56:39.604Z,1.70
2022-08-16T11:59:15.188Z,2.10
2022-08-16T12:01:55.274Z,1.90
2022-08-16T12:04:28.759Z,1.80
2022-08-16T12:06:58.697Z,1.77
2022-08-16T12:09:29.502Z,2.00
2022-08-16T12:11:58.668Z,2.00
2022-08-16T12:14:35.095Z,2.20
2022-08-16T12:17:04.415Z,2.17
2022-08-16T12:19:35.806Z,2.17
2022-08-16T12:22:05.826Z,2.10
2022-08-16T12:24:50.915Z,2.10
2022-08-16T12:27:19.459Z,2.17
2022-08-16T12:29:47.326Z,2.23
2022-08-16T12:32:37.442Z,2.27
2022-08-16T12:35:06.649Z,2.20
2022-08-16T12:37:35.692Z,2.50
2022-08-16T12:40:07.100Z,2.40
2022-08-16T12:42:53.077Z,2.10
2022-08-16T12:45:23.827Z,2.03
2022-08-16T12:48:32.964Z,2.00
2022-08-16T12:51:01.635Z,2.23
2022-08-16T12:53:31.754Z,2.10
2022-08-16T12:56:00.444Z,2.00
2022-08-16T12:58:48.752Z,2.00
2022-08-16T13:01:16.362Z,1.90
2022-08-16T13:03:45.450Z,2.10
2022-08-16T13:06:20.258Z,2.10
2022-08-16T13:09:00.076Z,2.10
2022-08-16T13:11:35.485Z,1.87
2022-08-16T13:14:05.700Z,1.97
2022-08-16T13:16:33.537Z,2.00
2022-08-16T13:19:02.089Z,2.47
2022-08-16T13:21:31.385Z,2.30
2022-08-16T13:23:59.618Z,2.27
2022-08-16T13:26:32.047Z,2.20
2022-08-16T13:29:00.009Z,1.90
2022-08-16T13:31:27.963Z,2.10
2022-08-16T13:33:58.632Z,2.10
2022-08-16T13:39:18.115Z,2.20
2022-08-16T13:41:53.835Z,2.17
2022-08-16T13:44:22.503Z,2.10
2022-08-16T13:47:10.376Z,2.20
2022-08-16T13:49:38.198Z,2.27
2022-08-16T13:52:07.370Z,2.40
2022-08-16T13:54:36.656Z,2.27
2022-08-16T13:57:05.490Z,2.23
2022-08-16T13:59:33.559Z,2.30
2022-08-16T14:02:05.480Z,1.90
2022-08-16T14:04:36.533Z,2.00
2022-08-16T14:07:08.162Z,2.20
2022-08-16T14:09:38.323Z,2.33
2022-08-16T14:12:17.803Z,1.97
2022-08-16T14:14:46.776Z,2.10
2022-08-16T14:17:16.630Z,2.10
2022-08-16T14:19:46.102Z,2.10
2022-08-16T14:22:30.816Z,2.30
2022-08-16T14:25:03.106Z,2.30
2022-08-16T14:27:31.812Z,2.23
2022-08-16T14:30:01.324Z,2.10
2022-08-16T14:32:34.191Z,2.00
2022-08-16T14:35:04.208Z,2.10
2022-08-16T14:37:32.679Z,1.90
2022-08-16T14:40:03.051Z,1.80
2022-08-16T14:42:31.521Z,2.20
2022-08-16T14:45:00.407Z,2.40
2022-08-16T14:47:34.252Z,2.03
2022-08-16T14:50:03.314Z,2.00
2022-08-16T14:55:24.226Z,2.00
2022-08-16T14:57:52.777Z,2.10
2022-08-16T15:00:33.061Z,2.00
2022-08-16T15:03:04.822Z,2.10
2022-08-16T15:05:34.311Z,2.10
2022-08-16T15:08:03.485Z,2.43
2022-08-16T15:10:33.348Z,1.90
2022-08-16T15:13:01.888Z,2.10
2022-08-16T15:15:30.890Z,2.10
2022-08-16T15:18:01.825Z,2.13
2022-08-16T15:20:32.437Z,1.87
2022-08-16T15:23:02.713Z,2.23
2022-08-16T15:25:35.361Z,2.40
2022-08-16T15:28:06.231Z,2.17
2022-08-16T15:30:59.324Z,2.10
2022-08-16T15:33:29.132Z,2.37
2022-08-16T15:36:00.584Z,1.87
2022-08-16T15:38:55.180Z,2.00
2022-08-16T15:41:54.549Z,2.30
2022-08-16T15:44:24.209Z,2.20
2022-08-16T15:46:55.868Z,2.40
2022-08-16T15:49:37.565Z,2.10
2022-08-16T15:52:12.568Z,2.10
2022-08-16T15:54:53.014Z,2.10
2022-08-16T15:57:26.455Z,1.80
2022-08-16T15:59:56.127Z,2.07
2022-08-16T16:02:40.303Z,2.10
2022-08-16T16:05:10.423Z,2.50
2022-08-16T16:07:40.810Z,2.60
2022-08-16T16:10:29.359Z,2.40
2022-08-16T16:13:01.705Z,2.30
2022-08-16T16:15:33.683Z,2.17
2022-08-16T16:18:09.467Z,2.22
2022-08-16T16:20:39.617Z,2.30
2022-08-16T16:23:11.080Z,2.30
2022-08-16T16:25:43.562Z,2.20
2022-08-16T16:29:07.756Z,2.17
2022-08-16T16:31:05.729Z,2.40
2022-08-16T16:33:38.362Z,2.10
2022-08-16T16:36:10.086Z,2.17
2022-08-16T16:38:41.995Z,2.07
2022-08-16T16:41:11.254Z,2.10
2022-08-16T16:43:44.265Z,2.23
2022-08-16T16:46:40.229Z,2.00
2022-08-16T16:49:04.772Z,2.40
2022-08-16T16:51:35.748Z,2.20
2022-08-16T16:54:09.929Z,2.40
2022-08-16T16:56:45.960Z,2.57
2022-08-16T16:59:19.994Z,2.50
2022-08-16T17:02:00.332Z,2.73
2022-08-16T17:04:38.473Z,2.50
2022-08-16T17:07:07.862Z,2.40
2022-08-16T17:09:39.480Z,2.40
2022-08-16T17:12:09.033Z,2.43
2022-08-16T17:14:38.665Z,2.53
2022-08-16T17:17:11.696Z,3.10
2022-08-16T17:19:42.468Z,2.30
2022-08-16T17:22:14.377Z,2.30
2022-08-16T17:24:50.990Z,2.60
2022-08-16T17:27:33.854Z,2.40
2022-08-16T17:30:14.802Z,2.33
2022-08-16T17:32:47.064Z,2.47
2022-08-16T17:35:18.968Z,2.73
2022-08-16T17:37:50.857Z,2.40
2022-08-16T17:40:23.419Z,2.80
2022-08-16T17:43:10.259Z,2.57
2022-08-16T17:45:40.772Z,2.67
2022-08-16T17:48:08.986Z,2.60
2022-08-16T17:50:37.469Z,2.40
2022-08-16T17:53:07.382Z,2.47
2022-08-16T17:55:38.803Z,2.73
2022-08-16T17:58:20.149Z,2.97
2022-08-16T18:00:55.879Z,3.20
2022-08-16T18:04:03.183Z,2.77
2022-08-16T18:06:18.579Z,2.87
2022-08-16T18:08:48.852Z,2.80
2022-08-16T18:11:18.964Z,2.60
2022-08-16T18:13:55.849Z,2.70
2022-08-16T18:16:25.795Z,2.63
2022-08-16T18:18:53.980Z,2.53
2022-08-16T18:21:39.692Z,2.83
2022-08-16T18:24:07.914Z,2.70
2022-08-16T18:26:36.033Z,3.30
2022-08-16T18:29:04.360Z,4.77
2022-08-16T18:31:34.763Z,4.20
2022-08-16T18:34:02.723Z,3.27
2022-08-16T18:36:31.198Z,3.03
2022-08-16T18:38:59.620Z,3.00
2022-08-16T18:41:28.826Z,3.27
2022-08-16T18:44:26.080Z,3.20
2022-08-16T18:46:48.916Z,2.57
2022-08-16T18:49:19.321Z,3.30
2022-08-16T18:51:47.436Z,3.00
2022-08-16T18:54:18.247Z,2.73
2022-08-16T18:56:55.222Z,3.13
2022-08-16T18:59:25.796Z,3.27
2022-08-16T19:02:00.507Z,3.20
2022-08-16T19:04:55.962Z,3.73
2022-08-16T19:07:22.149Z,3.83
2022-08-16T19:09:50.122Z,3.67
2022-08-16T19:12:18.203Z,3.17
2022-08-16T19:15:08.565Z,3.10
2022-08-16T19:17:41.561Z,3.13
2022-08-16T19:20:11.274Z,3.70
2022-08-16T19:23:10.912Z,3.57
2022-08-16T19:25:48.826Z,3.50
2022-08-16T19:28:48.992Z,3.60
2022-08-16T19:31:12.275Z,3.63
2022-08-16T19:33:53.173Z,3.50
2022-08-16T19:36:31.980Z,3.60
2022-08-16T19:39:05.367Z,3.80
2022-08-16T19:41:35.690Z,3.70
2022-08-16T19:44:04.564Z,3.57
2022-08-16T19:46:32.734Z,3.70
2022-08-16T19:49:02.299Z,3.67
2022-08-16T19:51:32.005Z,3.70
2022-08-16T19:54:00.170Z,3.60
2022-08-16T19:56:28.169Z,3.50
2022-08-16T20:01:44.996Z,3.53
2022-08-16T20:04:17.125Z,3.40
2022-08-16T20:06:45.518Z,3.90
2022-08-16T20:09:14.799Z,3.83
2022-08-16T20:11:44.341Z,4.00
2022-08-16T20:14:24.100Z,3.83
2022-08-16T20:16:53.749Z,3.80
2022-08-16T20:19:23.122Z,3.80
2022-08-16T20:21:53.455Z,4.30
2022-08-16T20:24:37.013Z,4.07
2022-08-16T20:27:07.286Z,4.50
2022-08-16T20:29:36.821Z,4.00
2022-08-16T20:32:05.723Z,4.10
2022-08-16T20:34:35.385Z,4.17
2022-08-16T20:37:05.038Z,5.07
2022-08-16T20:39:33.191Z,5.77
2022-08-16T20:42:01.274Z,5.10
2022-08-16T20:44:29.314Z,4.57
2022-08-16T20:46:57.345Z,4.63
2022-08-16T20:49:25.387Z,4.50
2022-08-16T20:51:59.124Z,4.23
2022-08-16T20:54:28.545Z,5.00
2022-08-16T20:56:56.515Z,4.30
2022-08-16T20:59:24.340Z,4.37
2022-08-16T21:01:52.710Z,4.53
2022-08-16T21:04:21.723Z,4.50
2022-08-16T21:06:53.482Z,4.10
2022-08-16T21:09:25.649Z,4.63
2022-08-16T21:11:55.859Z,4.77
2022-08-16T21:14:24.196Z,4.83
2022-08-16T21:16:52.113Z,4.50
2022-08-16T21:19:20.471Z,4.73
2022-08-16T21:21:48.765Z,4.60
2022-08-16T21:24:16.941Z,4.47
2022-08-16T21:26:55.241Z,4.57
2022-08-16T21:29:31.619Z,4.50
2022-08-16T21:32:11.197Z,4.33
2022-08-16T21:34:39.262Z,5.00
2022-08-16T21:37:07.355Z,4.73
2022-08-16T21:39:35.490Z,4.67
2022-08-16T21:42:08.945Z,4.53
2022-08-16T21:44:38.854Z,4.80
2022-08-16T21:47:08.240Z,5.33
2022-08-16T21:49:36.765Z,5.27
2022-08-16T21:52:05.744Z,4.73
2022-08-16T21:54:33.587Z,5.00
2022-08-16T21:57:01.395Z,4.63
2022-08-16T21:59:30.618Z,4.90
2022-08-16T22:01:58.465Z,4.90
2022-08-16T22:04:38.044Z,4.80
2022-08-16T22:07:07.379Z,4.80
2022-08-16T22:09:35.392Z,4.97
2022-08-16T22:12:03.267Z,5.10
2022-08-16T22:14:32.992Z,4.40
2022-08-16T22:17:00.905Z,4.80
2022-08-16T22:19:29.403Z,4.63
2022-08-16T22:21:57.239Z,5.03
2022-08-16T22:24:25.039Z,4.50
2022-08-16T22:26:52.873Z,4.67
2022-08-16T22:29:21.850Z,4.80
2022-08-16T22:31:51.223Z,4.77
2022-08-16T22:34:19.457Z,4.63
2022-08-16T22:36:47.280Z,4.53
2022-08-16T22:39:15.639Z,4.83
2022-08-16T22:41:45.748Z,4.53
2022-08-16T22:44:14.525Z,4.60
2022-08-16T22:46:42.396Z,4.60
2022-08-16T22:49:12.422Z,4.43
2022-08-16T22:51:41.302Z,4.57
2022-08-16T22:54:44.415Z,4.20
2022-08-16T22:56:57.623Z,4.17
2022-08-16T22:59:26.010Z,4.50
2022-08-16T23:01:54.012Z,4.40
2022-08-16T23:04:23.895Z,4.40
2022-08-16T23:06:52.126Z,4.47
2022-08-16T23:09:20.137Z,4.50
2022-08-16T23:11:48.248Z,4.40
2022-08-16T23:14:16.586Z,4.50
2022-08-16T23:16:47.189Z,4.87
2022-08-16T23:19:16.588Z,4.70
2022-08-16T23:21:48.902Z,4.77
2022-08-16T23:24:19.184Z,5.03
2022-08-16T23:26:49.135Z,4.90
2022-08-16T23:29:23.398Z,5.30
2022-08-16T23:31:54.565Z,4.97
2022-08-16T23:34:22.530Z,5.00
2022-08-16T23:36:51.698Z,4.53
2022-08-16T23:39:19.603Z,4.80
2022-08-16T23:41:47.538Z,5.07
2022-08-16T23:44:57.429Z,4.63
2022-08-16T23:47:03.417Z,4.63
2022-08-16T23:49:58.988Z,4.87
2022-08-16T23:52:54.739Z,5.00
2022-08-16T23:55:10.098Z,4.47
2022-08-16T23:57:37.946Z,4.43
